<?xml version="1.0" encoding="UTF-8" standalone="no" ?>
<gpx xmlns="http://www.topografix.com/GPX/1/1" xmlns:xsi="http://www.w3.org/2001/XMLSchema-instance" xsi:schemaLocation="http://www.topografix.com/GPX/1/1 http://www.topografix.com/GPX/1/1/gpx.xsd" version="1.1" creator="VisuGPX - https://www.visugpx.com">
  <metadata>
    <name>Course à pied le midi</name>
  </metadata>
  <trk>
    <name><![CDATA[Course à pied le midi_1]]></name>
    <trkseg>
      <trkpt lat="48.73506" lon="7.31218">
        <ele>443.3</ele>
        <time>2023-08-21T09:00:06Z</time>
      </trkpt>
      <trkpt lat="48.73507" lon="7.31226">
        <ele>443.7</ele>
        <time>2023-08-21T09:00:16Z</time>
      </trkpt>
      <trkpt lat="48.73513" lon="7.31252">
        <ele>446.4</ele>
        <time>2023-08-21T09:00:25Z</time>
      </trkpt>
      <trkpt lat="48.73518" lon="7.31278">
        <ele>448.7</ele>
        <time>2023-08-21T09:00:35Z</time>
      </trkpt>
      <trkpt lat="48.73525" lon="7.31304">
        <ele>451.2</ele>
        <time>2023-08-21T09:00:44Z</time>
      </trkpt>
      <trkpt lat="48.73527" lon="7.31331">
        <ele>454.5</ele>
        <time>2023-08-21T09:00:52Z</time>
      </trkpt>
      <trkpt lat="48.73528" lon="7.3136">
        <ele>458.4</ele>
        <time>2023-08-21T09:01:01Z</time>
      </trkpt>
      <trkpt lat="48.73533" lon="7.31387">
        <ele>460.4</ele>
        <time>2023-08-21T09:01:10Z</time>
      </trkpt>
      <trkpt lat="48.73536" lon="7.31417">
        <ele>461.6</ele>
        <time>2023-08-21T09:01:18Z</time>
      </trkpt>
      <trkpt lat="48.73537" lon="7.31446">
        <ele>462.7</ele>
        <time>2023-08-21T09:01:26Z</time>
      </trkpt>
      <trkpt lat="48.73534" lon="7.31475">
        <ele>463.8</ele>
        <time>2023-08-21T09:01:35Z</time>
      </trkpt>
      <trkpt lat="48.73534" lon="7.31506">
        <ele>464.8</ele>
        <time>2023-08-21T09:01:43Z</time>
      </trkpt>
      <trkpt lat="48.73529" lon="7.31535">
        <ele>465.2</ele>
        <time>2023-08-21T09:01:52Z</time>
      </trkpt>
      <trkpt lat="48.73527" lon="7.31563">
        <ele>465.2</ele>
        <time>2023-08-21T09:01:58Z</time>
      </trkpt>
      <trkpt lat="48.73526" lon="7.31593">
        <ele>465.2</ele>
        <time>2023-08-21T09:02:04Z</time>
      </trkpt>
      <trkpt lat="48.73531" lon="7.31627">
        <ele>465.4</ele>
        <time>2023-08-21T09:02:11Z</time>
      </trkpt>
      <trkpt lat="48.73534" lon="7.31656">
        <ele>466</ele>
        <time>2023-08-21T09:02:19Z</time>
      </trkpt>
      <trkpt lat="48.73539" lon="7.31684">
        <ele>466.6</ele>
        <time>2023-08-21T09:02:26Z</time>
      </trkpt>
      <trkpt lat="48.73543" lon="7.31711">
        <ele>467.5</ele>
        <time>2023-08-21T09:02:33Z</time>
      </trkpt>
      <trkpt lat="48.73543" lon="7.31739">
        <ele>467.9</ele>
        <time>2023-08-21T09:02:39Z</time>
      </trkpt>
      <trkpt lat="48.73545" lon="7.31767">
        <ele>467.8</ele>
        <time>2023-08-21T09:02:46Z</time>
      </trkpt>
      <trkpt lat="48.73551" lon="7.31794">
        <ele>468</ele>
        <time>2023-08-21T09:02:53Z</time>
      </trkpt>
      <trkpt lat="48.73556" lon="7.31823">
        <ele>467.7</ele>
        <time>2023-08-21T09:03:00Z</time>
      </trkpt>
      <trkpt lat="48.73557" lon="7.31854">
        <ele>467.3</ele>
        <time>2023-08-21T09:03:06Z</time>
      </trkpt>
      <trkpt lat="48.73556" lon="7.31883">
        <ele>467</ele>
        <time>2023-08-21T09:03:12Z</time>
      </trkpt>
      <trkpt lat="48.73554" lon="7.3191">
        <ele>467.1</ele>
        <time>2023-08-21T09:03:17Z</time>
      </trkpt>
      <trkpt lat="48.73553" lon="7.31939">
        <ele>467.3</ele>
        <time>2023-08-21T09:03:23Z</time>
      </trkpt>
      <trkpt lat="48.73552" lon="7.3197">
        <ele>467</ele>
        <time>2023-08-21T09:03:29Z</time>
      </trkpt>
      <trkpt lat="48.73549" lon="7.32">
        <ele>466.6</ele>
        <time>2023-08-21T09:03:35Z</time>
      </trkpt>
      <trkpt lat="48.73547" lon="7.32029">
        <ele>466.1</ele>
        <time>2023-08-21T09:03:42Z</time>
      </trkpt>
      <trkpt lat="48.73544" lon="7.32057">
        <ele>465.7</ele>
        <time>2023-08-21T09:03:49Z</time>
      </trkpt>
      <trkpt lat="48.73545" lon="7.32087">
        <ele>465.9</ele>
        <time>2023-08-21T09:03:56Z</time>
      </trkpt>
      <trkpt lat="48.73547" lon="7.32118">
        <ele>466.4</ele>
        <time>2023-08-21T09:04:03Z</time>
      </trkpt>
      <trkpt lat="48.73543" lon="7.32149">
        <ele>467.8</ele>
        <time>2023-08-21T09:04:10Z</time>
      </trkpt>
      <trkpt lat="48.7354" lon="7.32152">
        <ele>467.9</ele>
        <time>2023-08-21T09:04:13Z</time>
      </trkpt>
      <trkpt lat="48.73521" lon="7.32144">
        <ele>469</ele>
        <time>2023-08-21T09:04:21Z</time>
      </trkpt>
      <trkpt lat="48.73502" lon="7.32136">
        <ele>470.9</ele>
        <time>2023-08-21T09:04:28Z</time>
      </trkpt>
      <trkpt lat="48.73483" lon="7.32121">
        <ele>472</ele>
        <time>2023-08-21T09:04:35Z</time>
      </trkpt>
      <trkpt lat="48.73466" lon="7.32105">
        <ele>472.1</ele>
        <time>2023-08-21T09:04:42Z</time>
      </trkpt>
      <trkpt lat="48.73451" lon="7.32085">
        <ele>471.6</ele>
        <time>2023-08-21T09:04:48Z</time>
      </trkpt>
      <trkpt lat="48.73439" lon="7.32061">
        <ele>471.2</ele>
        <time>2023-08-21T09:04:54Z</time>
      </trkpt>
      <trkpt lat="48.73421" lon="7.32053">
        <ele>471.1</ele>
        <time>2023-08-21T09:05:02Z</time>
      </trkpt>
      <trkpt lat="48.73402" lon="7.32061">
        <ele>471.7</ele>
        <time>2023-08-21T09:05:09Z</time>
      </trkpt>
      <trkpt lat="48.73395" lon="7.32068">
        <ele>471.9</ele>
        <time>2023-08-21T09:05:16Z</time>
      </trkpt>
      <trkpt lat="48.73396" lon="7.32068">
        <ele>471.9</ele>
        <time>2023-08-21T09:05:20Z</time>
      </trkpt>
      <trkpt lat="48.73405" lon="7.32042">
        <ele>470.9</ele>
        <time>2023-08-21T09:05:28Z</time>
      </trkpt>
      <trkpt lat="48.73415" lon="7.32019">
        <ele>469.4</ele>
        <time>2023-08-21T09:05:34Z</time>
      </trkpt>
      <trkpt lat="48.73424" lon="7.31993">
        <ele>468.1</ele>
        <time>2023-08-21T09:05:41Z</time>
      </trkpt>
      <trkpt lat="48.73436" lon="7.31971">
        <ele>467.7</ele>
        <time>2023-08-21T09:05:48Z</time>
      </trkpt>
      <trkpt lat="48.73447" lon="7.31945">
        <ele>467.3</ele>
        <time>2023-08-21T09:05:54Z</time>
      </trkpt>
      <trkpt lat="48.73458" lon="7.31924">
        <ele>467</ele>
        <time>2023-08-21T09:06:00Z</time>
      </trkpt>
      <trkpt lat="48.73467" lon="7.31899">
        <ele>466.4</ele>
        <time>2023-08-21T09:06:06Z</time>
      </trkpt>
      <trkpt lat="48.73475" lon="7.31875">
        <ele>466.3</ele>
        <time>2023-08-21T09:06:12Z</time>
      </trkpt>
      <trkpt lat="48.73483" lon="7.31847">
        <ele>466</ele>
        <time>2023-08-21T09:06:19Z</time>
      </trkpt>
      <trkpt lat="48.73499" lon="7.3184">
        <ele>466.5</ele>
        <time>2023-08-21T09:06:28Z</time>
      </trkpt>
      <trkpt lat="48.73507" lon="7.31844">
        <ele>466.9</ele>
        <time>2023-08-21T09:06:34Z</time>
      </trkpt>
      <trkpt lat="48.73525" lon="7.31847">
        <ele>467.2</ele>
        <time>2023-08-21T09:06:45Z</time>
      </trkpt>
      <trkpt lat="48.73543" lon="7.31852">
        <ele>467.3</ele>
        <time>2023-08-21T09:06:51Z</time>
      </trkpt>
      <trkpt lat="48.73562" lon="7.31856">
        <ele>467.2</ele>
        <time>2023-08-21T09:06:57Z</time>
      </trkpt>
      <trkpt lat="48.73582" lon="7.3185">
        <ele>467.1</ele>
        <time>2023-08-21T09:07:03Z</time>
      </trkpt>
      <trkpt lat="48.73603" lon="7.31849">
        <ele>466.7</ele>
        <time>2023-08-21T09:07:09Z</time>
      </trkpt>
      <trkpt lat="48.73622" lon="7.31843">
        <ele>466.4</ele>
        <time>2023-08-21T09:07:15Z</time>
      </trkpt>
      <trkpt lat="48.7364" lon="7.31837">
        <ele>466.3</ele>
        <time>2023-08-21T09:07:21Z</time>
      </trkpt>
      <trkpt lat="48.7366" lon="7.31831">
        <ele>465.7</ele>
        <time>2023-08-21T09:07:26Z</time>
      </trkpt>
      <trkpt lat="48.73679" lon="7.31832">
        <ele>464</ele>
        <time>2023-08-21T09:07:32Z</time>
      </trkpt>
      <trkpt lat="48.73699" lon="7.31834">
        <ele>461.8</ele>
        <time>2023-08-21T09:07:38Z</time>
      </trkpt>
      <trkpt lat="48.73719" lon="7.31835">
        <ele>459.4</ele>
        <time>2023-08-21T09:07:44Z</time>
      </trkpt>
      <trkpt lat="48.73742" lon="7.31834">
        <ele>457.1</ele>
        <time>2023-08-21T09:07:50Z</time>
      </trkpt>
      <trkpt lat="48.73761" lon="7.31835">
        <ele>455.7</ele>
        <time>2023-08-21T09:07:55Z</time>
      </trkpt>
      <trkpt lat="48.73781" lon="7.31832">
        <ele>453.9</ele>
        <time>2023-08-21T09:08:00Z</time>
      </trkpt>
      <trkpt lat="48.73797" lon="7.3182">
        <ele>452.8</ele>
        <time>2023-08-21T09:08:08Z</time>
      </trkpt>
      <trkpt lat="48.738" lon="7.31798">
        <ele>453.3</ele>
        <time>2023-08-21T09:08:19Z</time>
      </trkpt>
      <trkpt lat="48.73795" lon="7.3177">
        <ele>454.9</ele>
        <time>2023-08-21T09:08:29Z</time>
      </trkpt>
      <trkpt lat="48.73787" lon="7.31744">
        <ele>457.9</ele>
        <time>2023-08-21T09:08:39Z</time>
      </trkpt>
      <trkpt lat="48.73776" lon="7.31723">
        <ele>459.8</ele>
        <time>2023-08-21T09:08:48Z</time>
      </trkpt>
      <trkpt lat="48.73768" lon="7.31695">
        <ele>460.4</ele>
        <time>2023-08-21T09:08:56Z</time>
      </trkpt>
      <trkpt lat="48.73764" lon="7.31668">
        <ele>461.3</ele>
        <time>2023-08-21T09:09:03Z</time>
      </trkpt>
      <trkpt lat="48.73756" lon="7.31639">
        <ele>462.7</ele>
        <time>2023-08-21T09:09:11Z</time>
      </trkpt>
      <trkpt lat="48.73751" lon="7.31612">
        <ele>463</ele>
        <time>2023-08-21T09:09:18Z</time>
      </trkpt>
      <trkpt lat="48.73746" lon="7.31584">
        <ele>463.3</ele>
        <time>2023-08-21T09:09:25Z</time>
      </trkpt>
      <trkpt lat="48.73739" lon="7.31558">
        <ele>463.5</ele>
        <time>2023-08-21T09:09:31Z</time>
      </trkpt>
      <trkpt lat="48.73732" lon="7.31531">
        <ele>463.1</ele>
        <time>2023-08-21T09:09:37Z</time>
      </trkpt>
      <trkpt lat="48.73727" lon="7.31504">
        <ele>462.6</ele>
        <time>2023-08-21T09:09:44Z</time>
      </trkpt>
      <trkpt lat="48.73724" lon="7.31474">
        <ele>462.2</ele>
        <time>2023-08-21T09:09:51Z</time>
      </trkpt>
      <trkpt lat="48.73722" lon="7.31447">
        <ele>461.8</ele>
        <time>2023-08-21T09:09:57Z</time>
      </trkpt>
      <trkpt lat="48.73721" lon="7.31417">
        <ele>461.6</ele>
        <time>2023-08-21T09:10:03Z</time>
      </trkpt>
      <trkpt lat="48.73723" lon="7.31409">
        <ele>461.6</ele>
        <time>2023-08-21T09:10:04Z</time>
      </trkpt>
      <trkpt lat="48.73733" lon="7.31385">
        <ele>461.5</ele>
        <time>2023-08-21T09:10:11Z</time>
      </trkpt>
      <trkpt lat="48.73745" lon="7.3136">
        <ele>461.6</ele>
        <time>2023-08-21T09:10:18Z</time>
      </trkpt>
      <trkpt lat="48.7375" lon="7.31333">
        <ele>461.4</ele>
        <time>2023-08-21T09:10:24Z</time>
      </trkpt>
      <trkpt lat="48.73752" lon="7.31306">
        <ele>460.9</ele>
        <time>2023-08-21T09:10:30Z</time>
      </trkpt>
      <trkpt lat="48.73754" lon="7.31279">
        <ele>460.6</ele>
        <time>2023-08-21T09:10:38Z</time>
      </trkpt>
      <trkpt lat="48.73754" lon="7.31275">
        <ele>460.5</ele>
        <time>2023-08-21T09:10:40Z</time>
      </trkpt>
      <trkpt lat="48.73735" lon="7.3127">
        <ele>460.2</ele>
        <time>2023-08-21T09:10:49Z</time>
      </trkpt>
      <trkpt lat="48.73715" lon="7.31274">
        <ele>460</ele>
        <time>2023-08-21T09:10:56Z</time>
      </trkpt>
      <trkpt lat="48.73696" lon="7.3128">
        <ele>459.5</ele>
        <time>2023-08-21T09:11:03Z</time>
      </trkpt>
      <trkpt lat="48.73677" lon="7.3129">
        <ele>458.7</ele>
        <time>2023-08-21T09:11:11Z</time>
      </trkpt>
      <trkpt lat="48.73657" lon="7.31297">
        <ele>457.8</ele>
        <time>2023-08-21T09:11:19Z</time>
      </trkpt>
      <trkpt lat="48.73637" lon="7.31301">
        <ele>456.9</ele>
        <time>2023-08-21T09:11:25Z</time>
      </trkpt>
      <trkpt lat="48.73617" lon="7.31295">
        <ele>455.6</ele>
        <time>2023-08-21T09:11:31Z</time>
      </trkpt>
      <trkpt lat="48.73596" lon="7.31293">
        <ele>454</ele>
        <time>2023-08-21T09:11:37Z</time>
      </trkpt>
      <trkpt lat="48.73577" lon="7.31282">
        <ele>451.7</ele>
        <time>2023-08-21T09:11:43Z</time>
      </trkpt>
      <trkpt lat="48.73558" lon="7.31283">
        <ele>450.7</ele>
        <time>2023-08-21T09:11:49Z</time>
      </trkpt>
      <trkpt lat="48.73539" lon="7.31272">
        <ele>448.3</ele>
        <time>2023-08-21T09:11:56Z</time>
      </trkpt>
      <trkpt lat="48.73524" lon="7.31255">
        <ele>446.7</ele>
        <time>2023-08-21T09:12:02Z</time>
      </trkpt>
      <trkpt lat="48.73509" lon="7.31235">
        <ele>445.2</ele>
        <time>2023-08-21T09:12:09Z</time>
      </trkpt>
      <trkpt lat="48.73508" lon="7.31233">
        <ele>444.7</ele>
        <time>2023-08-21T09:12:10Z</time>
      </trkpt>
      <trkpt lat="48.73509" lon="7.31218">
        <ele>443.3</ele>
        <time>2023-08-21T09:15:02Z</time>
      </trkpt>
      <trkpt lat="48.73509" lon="7.31229">
        <ele>444.2</ele>
        <time>2023-08-21T09:15:09Z</time>
      </trkpt>
      <trkpt lat="48.73511" lon="7.31258">
        <ele>447</ele>
        <time>2023-08-21T09:15:16Z</time>
      </trkpt>
      <trkpt lat="48.73515" lon="7.31284">
        <ele>449.1</ele>
        <time>2023-08-21T09:15:25Z</time>
      </trkpt>
      <trkpt lat="48.73514" lon="7.31313">
        <ele>451.9</ele>
        <time>2023-08-21T09:15:32Z</time>
      </trkpt>
      <trkpt lat="48.73509" lon="7.3134">
        <ele>455.2</ele>
        <time>2023-08-21T09:15:39Z</time>
      </trkpt>
      <trkpt lat="48.73507" lon="7.31369">
        <ele>458.6</ele>
        <time>2023-08-21T09:15:46Z</time>
      </trkpt>
      <trkpt lat="48.73502" lon="7.31397">
        <ele>460.3</ele>
        <time>2023-08-21T09:15:54Z</time>
      </trkpt>
      <trkpt lat="48.73496" lon="7.31424">
        <ele>461.7</ele>
        <time>2023-08-21T09:16:01Z</time>
      </trkpt>
      <trkpt lat="48.73487" lon="7.31449">
        <ele>462.5</ele>
        <time>2023-08-21T09:16:06Z</time>
      </trkpt>
      <trkpt lat="48.7348" lon="7.31479">
        <ele>463.3</ele>
        <time>2023-08-21T09:16:12Z</time>
      </trkpt>
      <trkpt lat="48.73475" lon="7.3151">
        <ele>463.9</ele>
        <time>2023-08-21T09:16:18Z</time>
      </trkpt>
      <trkpt lat="48.73473" lon="7.31517">
        <ele>463.8</ele>
        <time>2023-08-21T09:16:22Z</time>
      </trkpt>
      <trkpt lat="48.73485" lon="7.31503">
        <ele>464.1</ele>
        <time>2023-08-21T09:16:42Z</time>
      </trkpt>
      <trkpt lat="48.735" lon="7.31484">
        <ele>463.9</ele>
        <time>2023-08-21T09:16:48Z</time>
      </trkpt>
      <trkpt lat="48.73516" lon="7.31466">
        <ele>463.2</ele>
        <time>2023-08-21T09:16:53Z</time>
      </trkpt>
      <trkpt lat="48.73531" lon="7.31448">
        <ele>462.6</ele>
        <time>2023-08-21T09:16:59Z</time>
      </trkpt>
      <trkpt lat="48.73545" lon="7.31431">
        <ele>462.2</ele>
        <time>2023-08-21T09:17:05Z</time>
      </trkpt>
      <trkpt lat="48.7356" lon="7.31414">
        <ele>461.6</ele>
        <time>2023-08-21T09:17:13Z</time>
      </trkpt>
      <trkpt lat="48.73565" lon="7.31406">
        <ele>461.3</ele>
        <time>2023-08-21T09:17:17Z</time>
      </trkpt>
      <trkpt lat="48.73572" lon="7.31388">
        <ele>460.7</ele>
        <time>2023-08-21T09:17:23Z</time>
      </trkpt>
      <trkpt lat="48.73586" lon="7.31404">
        <ele>461.4</ele>
        <time>2023-08-21T09:17:30Z</time>
      </trkpt>
      <trkpt lat="48.7359" lon="7.31431">
        <ele>462.2</ele>
        <time>2023-08-21T09:17:36Z</time>
      </trkpt>
      <trkpt lat="48.73588" lon="7.31461">
        <ele>462.8</ele>
        <time>2023-08-21T09:17:43Z</time>
      </trkpt>
      <trkpt lat="48.73586" lon="7.31465">
        <ele>462.9</ele>
        <time>2023-08-21T09:17:44Z</time>
      </trkpt>
      <trkpt lat="48.73585" lon="7.31464">
        <ele>462.9</ele>
        <time>2023-08-21T09:17:46Z</time>
      </trkpt>
      <trkpt lat="48.73574" lon="7.31441">
        <ele>462.5</ele>
        <time>2023-08-21T09:17:52Z</time>
      </trkpt>
      <trkpt lat="48.73567" lon="7.31415">
        <ele>461.7</ele>
        <time>2023-08-21T09:17:57Z</time>
      </trkpt>
      <trkpt lat="48.73565" lon="7.31385">
        <ele>460.5</ele>
        <time>2023-08-21T09:18:03Z</time>
      </trkpt>
      <trkpt lat="48.73557" lon="7.31355">
        <ele>458.4</ele>
        <time>2023-08-21T09:18:08Z</time>
      </trkpt>
      <trkpt lat="48.7355" lon="7.31329">
        <ele>455</ele>
        <time>2023-08-21T09:18:12Z</time>
      </trkpt>
      <trkpt lat="48.73542" lon="7.31302">
        <ele>451.5</ele>
        <time>2023-08-21T09:18:16Z</time>
      </trkpt>
      <trkpt lat="48.73529" lon="7.31278">
        <ele>448.9</ele>
        <time>2023-08-21T09:18:21Z</time>
      </trkpt>
      <trkpt lat="48.73513" lon="7.31254">
        <ele>446.7</ele>
        <time>2023-08-21T09:18:26Z</time>
      </trkpt>
      <trkpt lat="48.73505" lon="7.31241">
        <ele>445.5</ele>
        <time>2023-08-21T09:18:29Z</time>
      </trkpt>
      <trkpt lat="48.735" lon="7.31234">
        <ele>444.6</ele>
        <time>2023-08-21T09:18:32Z</time>
      </trkpt>
      <trkpt lat="48.73501" lon="7.31233">
        <ele>444.6</ele>
        <time>2023-08-21T09:18:37Z</time>
      </trkpt>
      <trkpt lat="48.73501" lon="7.31231">
        <ele>444.6</ele>
        <time>2023-08-21T09:18:39Z</time>
      </trkpt>
      <trkpt lat="48.73502" lon="7.31231">
        <ele>444.6</ele>
        <time>2023-08-21T09:18:40Z</time>
      </trkpt>
      <trkpt lat="48.73503" lon="7.31227">
        <ele>444.2</ele>
        <time>2023-08-21T09:21:33Z</time>
      </trkpt>
      <trkpt lat="48.73518" lon="7.31208">
        <ele>442.1</ele>
        <time>2023-08-21T09:21:39Z</time>
      </trkpt>
      <trkpt lat="48.73529" lon="7.31195">
        <ele>441.2</ele>
        <time>2023-08-21T09:21:42Z</time>
      </trkpt>
      <trkpt lat="48.73532" lon="7.31183">
        <ele>440.4</ele>
        <time>2023-08-21T09:21:44Z</time>
      </trkpt>
      <trkpt lat="48.73531" lon="7.31172">
        <ele>439.3</ele>
        <time>2023-08-21T09:21:46Z</time>
      </trkpt>
      <trkpt lat="48.73529" lon="7.31142">
        <ele>437.4</ele>
        <time>2023-08-21T09:21:51Z</time>
      </trkpt>
      <trkpt lat="48.7353" lon="7.31138">
        <ele>437.1</ele>
        <time>2023-08-21T09:21:52Z</time>
      </trkpt>
      <trkpt lat="48.73532" lon="7.31117">
        <ele>436</ele>
        <time>2023-08-21T09:21:57Z</time>
      </trkpt>
      <trkpt lat="48.73518" lon="7.31093">
        <ele>433.6</ele>
        <time>2023-08-21T09:22:02Z</time>
      </trkpt>
      <trkpt lat="48.73501" lon="7.31074">
        <ele>431.9</ele>
        <time>2023-08-21T09:22:07Z</time>
      </trkpt>
      <trkpt lat="48.73485" lon="7.31061">
        <ele>430.8</ele>
        <time>2023-08-21T09:22:11Z</time>
      </trkpt>
      <trkpt lat="48.73467" lon="7.31044">
        <ele>429.1</ele>
        <time>2023-08-21T09:22:16Z</time>
      </trkpt>
      <trkpt lat="48.73447" lon="7.3103">
        <ele>427.5</ele>
        <time>2023-08-21T09:22:22Z</time>
      </trkpt>
      <trkpt lat="48.73431" lon="7.3101">
        <ele>426.1</ele>
        <time>2023-08-21T09:22:27Z</time>
      </trkpt>
      <trkpt lat="48.7342" lon="7.30983">
        <ele>424.3</ele>
        <time>2023-08-21T09:22:34Z</time>
      </trkpt>
      <trkpt lat="48.73413" lon="7.30955">
        <ele>421.8</ele>
        <time>2023-08-21T09:22:41Z</time>
      </trkpt>
      <trkpt lat="48.73406" lon="7.3093">
        <ele>420</ele>
        <time>2023-08-21T09:22:49Z</time>
      </trkpt>
      <trkpt lat="48.73415" lon="7.30904">
        <ele>419.9</ele>
        <time>2023-08-21T09:22:59Z</time>
      </trkpt>
      <trkpt lat="48.73417" lon="7.30898">
        <ele>419.8</ele>
        <time>2023-08-21T09:23:00Z</time>
      </trkpt>
      <trkpt lat="48.73424" lon="7.3087">
        <ele>420.3</ele>
        <time>2023-08-21T09:23:08Z</time>
      </trkpt>
      <trkpt lat="48.73437" lon="7.30847">
        <ele>421.8</ele>
        <time>2023-08-21T09:23:15Z</time>
      </trkpt>
      <trkpt lat="48.73452" lon="7.30827">
        <ele>424.3</ele>
        <time>2023-08-21T09:23:21Z</time>
      </trkpt>
      <trkpt lat="48.73468" lon="7.30809">
        <ele>426.4</ele>
        <time>2023-08-21T09:23:27Z</time>
      </trkpt>
      <trkpt lat="48.73485" lon="7.30797">
        <ele>429.4</ele>
        <time>2023-08-21T09:23:34Z</time>
      </trkpt>
      <trkpt lat="48.73505" lon="7.30792">
        <ele>431.4</ele>
        <time>2023-08-21T09:23:43Z</time>
      </trkpt>
      <trkpt lat="48.7351" lon="7.30789">
        <ele>431.7</ele>
        <time>2023-08-21T09:23:48Z</time>
      </trkpt>
      <trkpt lat="48.73491" lon="7.30798">
        <ele>430.2</ele>
        <time>2023-08-21T09:23:55Z</time>
      </trkpt>
      <trkpt lat="48.73473" lon="7.30807">
        <ele>427.5</ele>
        <time>2023-08-21T09:24:01Z</time>
      </trkpt>
      <trkpt lat="48.73468" lon="7.30838">
        <ele>426.8</ele>
        <time>2023-08-21T09:24:07Z</time>
      </trkpt>
      <trkpt lat="48.73467" lon="7.30869">
        <ele>426</ele>
        <time>2023-08-21T09:24:13Z</time>
      </trkpt>
      <trkpt lat="48.73465" lon="7.30901">
        <ele>425.1</ele>
        <time>2023-08-21T09:24:18Z</time>
      </trkpt>
      <trkpt lat="48.73457" lon="7.30932">
        <ele>424.5</ele>
        <time>2023-08-21T09:24:22Z</time>
      </trkpt>
      <trkpt lat="48.73454" lon="7.30963">
        <ele>425.1</ele>
        <time>2023-08-21T09:24:27Z</time>
      </trkpt>
      <trkpt lat="48.73449" lon="7.3098">
        <ele>425.7</ele>
        <time>2023-08-21T09:24:33Z</time>
      </trkpt>
      <trkpt lat="48.73448" lon="7.31009">
        <ele>426.8</ele>
        <time>2023-08-21T09:24:41Z</time>
      </trkpt>
      <trkpt lat="48.73449" lon="7.31015">
        <ele>427.1</ele>
        <time>2023-08-21T09:24:42Z</time>
      </trkpt>
      <trkpt lat="48.73453" lon="7.31019">
        <ele>427.4</ele>
        <time>2023-08-21T09:24:45Z</time>
      </trkpt>
      <trkpt lat="48.73468" lon="7.31036">
        <ele>428.8</ele>
        <time>2023-08-21T09:24:53Z</time>
      </trkpt>
      <trkpt lat="48.73485" lon="7.31047">
        <ele>430.3</ele>
        <time>2023-08-21T09:25:01Z</time>
      </trkpt>
      <trkpt lat="48.73498" lon="7.3107">
        <ele>431.6</ele>
        <time>2023-08-21T09:25:09Z</time>
      </trkpt>
      <trkpt lat="48.73499" lon="7.311">
        <ele>433.1</ele>
        <time>2023-08-21T09:25:16Z</time>
      </trkpt>
      <trkpt lat="48.73505" lon="7.31126">
        <ele>435.2</ele>
        <time>2023-08-21T09:25:25Z</time>
      </trkpt>
      <trkpt lat="48.73504" lon="7.31153">
        <ele>437.4</ele>
        <time>2023-08-21T09:25:32Z</time>
      </trkpt>
      <trkpt lat="48.73509" lon="7.31165">
        <ele>438.2</ele>
        <time>2023-08-21T09:25:33Z</time>
      </trkpt>
      <trkpt lat="48.73509" lon="7.31193">
        <ele>440.9</ele>
        <time>2023-08-21T09:25:40Z</time>
      </trkpt>
      <trkpt lat="48.73505" lon="7.31206">
        <ele>441.1</ele>
        <time>2023-08-21T09:25:43Z</time>
      </trkpt>
      <trkpt lat="48.73506" lon="7.31212">
        <ele>441.2</ele>
        <time>2023-08-21T09:25:47Z</time>
      </trkpt>
      <trkpt lat="48.73506" lon="7.31213">
        <ele>441.2</ele>
        <time>2023-08-21T09:25:52Z</time>
      </trkpt>
      <trkpt lat="48.73504" lon="7.31219">
        <ele>441.3</ele>
        <time>2023-08-21T09:27:25Z</time>
      </trkpt>
      <trkpt lat="48.73503" lon="7.31221">
        <ele>441.3</ele>
        <time>2023-08-21T09:27:27Z</time>
      </trkpt>
      <trkpt lat="48.73493" lon="7.31228">
        <ele>441.4</ele>
        <time>2023-08-21T09:27:31Z</time>
      </trkpt>
      <trkpt lat="48.73481" lon="7.31248">
        <ele>441.7</ele>
        <time>2023-08-21T09:27:36Z</time>
      </trkpt>
      <trkpt lat="48.73468" lon="7.3127">
        <ele>442.3</ele>
        <time>2023-08-21T09:27:41Z</time>
      </trkpt>
      <trkpt lat="48.73452" lon="7.31291">
        <ele>442.9</ele>
        <time>2023-08-21T09:27:47Z</time>
      </trkpt>
      <trkpt lat="48.73437" lon="7.3131">
        <ele>443.4</ele>
        <time>2023-08-21T09:27:53Z</time>
      </trkpt>
      <trkpt lat="48.73418" lon="7.31329">
        <ele>443.6</ele>
        <time>2023-08-21T09:27:59Z</time>
      </trkpt>
      <trkpt lat="48.734" lon="7.31345">
        <ele>443.4</ele>
        <time>2023-08-21T09:28:05Z</time>
      </trkpt>
      <trkpt lat="48.73385" lon="7.31361">
        <ele>443</ele>
        <time>2023-08-21T09:28:10Z</time>
      </trkpt>
      <trkpt lat="48.7337" lon="7.31379">
        <ele>442.5</ele>
        <time>2023-08-21T09:28:15Z</time>
      </trkpt>
      <trkpt lat="48.73354" lon="7.31401">
        <ele>442.2</ele>
        <time>2023-08-21T09:28:21Z</time>
      </trkpt>
      <trkpt lat="48.73338" lon="7.31419">
        <ele>442.1</ele>
        <time>2023-08-21T09:28:26Z</time>
      </trkpt>
      <trkpt lat="48.73322" lon="7.31434">
        <ele>442</ele>
        <time>2023-08-21T09:28:30Z</time>
      </trkpt>
      <trkpt lat="48.73304" lon="7.31451">
        <ele>441.7</ele>
        <time>2023-08-21T09:28:35Z</time>
      </trkpt>
      <trkpt lat="48.73288" lon="7.31464">
        <ele>441.3</ele>
        <time>2023-08-21T09:28:39Z</time>
      </trkpt>
      <trkpt lat="48.73269" lon="7.31469">
        <ele>440.2</ele>
        <time>2023-08-21T09:28:44Z</time>
      </trkpt>
      <trkpt lat="48.73247" lon="7.31473">
        <ele>438.9</ele>
        <time>2023-08-21T09:28:49Z</time>
      </trkpt>
      <trkpt lat="48.73226" lon="7.31478">
        <ele>437.7</ele>
        <time>2023-08-21T09:28:54Z</time>
      </trkpt>
      <trkpt lat="48.73204" lon="7.31483">
        <ele>436.3</ele>
        <time>2023-08-21T09:28:59Z</time>
      </trkpt>
      <trkpt lat="48.73182" lon="7.31482">
        <ele>435.1</ele>
        <time>2023-08-21T09:29:04Z</time>
      </trkpt>
      <trkpt lat="48.73161" lon="7.3148">
        <ele>433.8</ele>
        <time>2023-08-21T09:29:09Z</time>
      </trkpt>
      <trkpt lat="48.73143" lon="7.31471">
        <ele>432.7</ele>
        <time>2023-08-21T09:29:14Z</time>
      </trkpt>
      <trkpt lat="48.73127" lon="7.3146">
        <ele>431.6</ele>
        <time>2023-08-21T09:29:19Z</time>
      </trkpt>
      <trkpt lat="48.73123" lon="7.31463">
        <ele>431.7</ele>
        <time>2023-08-21T09:29:21Z</time>
      </trkpt>
      <trkpt lat="48.73119" lon="7.31489">
        <ele>432.7</ele>
        <time>2023-08-21T09:29:31Z</time>
      </trkpt>
      <trkpt lat="48.73106" lon="7.31512">
        <ele>431.6</ele>
        <time>2023-08-21T09:29:39Z</time>
      </trkpt>
      <trkpt lat="48.73099" lon="7.31537">
        <ele>430</ele>
        <time>2023-08-21T09:29:47Z</time>
      </trkpt>
      <trkpt lat="48.73095" lon="7.31541">
        <ele>429.4</ele>
        <time>2023-08-21T09:29:51Z</time>
      </trkpt>
      <trkpt lat="48.7309" lon="7.31545">
        <ele>428.3</ele>
        <time>2023-08-21T09:30:00Z</time>
      </trkpt>
      <trkpt lat="48.73087" lon="7.31555">
        <ele>427.3</ele>
        <time>2023-08-21T09:30:05Z</time>
      </trkpt>
      <trkpt lat="48.73084" lon="7.31568">
        <ele>425.8</ele>
        <time>2023-08-21T09:30:09Z</time>
      </trkpt>
      <trkpt lat="48.73082" lon="7.31597">
        <ele>422.9</ele>
        <time>2023-08-21T09:30:17Z</time>
      </trkpt>
      <trkpt lat="48.73085" lon="7.31604">
        <ele>423.3</ele>
        <time>2023-08-21T09:30:18Z</time>
      </trkpt>
      <trkpt lat="48.73094" lon="7.31631">
        <ele>423.8</ele>
        <time>2023-08-21T09:30:24Z</time>
      </trkpt>
      <trkpt lat="48.73098" lon="7.31661">
        <ele>422.2</ele>
        <time>2023-08-21T09:30:29Z</time>
      </trkpt>
      <trkpt lat="48.73089" lon="7.3169">
        <ele>415.8</ele>
        <time>2023-08-21T09:30:36Z</time>
      </trkpt>
      <trkpt lat="48.73083" lon="7.31695">
        <ele>413.5</ele>
        <time>2023-08-21T09:30:37Z</time>
      </trkpt>
      <trkpt lat="48.7308" lon="7.31695">
        <ele>412.5</ele>
        <time>2023-08-21T09:30:39Z</time>
      </trkpt>
      <trkpt lat="48.73062" lon="7.31681">
        <ele>409.2</ele>
        <time>2023-08-21T09:30:45Z</time>
      </trkpt>
      <trkpt lat="48.73042" lon="7.31681">
        <ele>404.8</ele>
        <time>2023-08-21T09:30:50Z</time>
      </trkpt>
      <trkpt lat="48.73024" lon="7.31677">
        <ele>402.1</ele>
        <time>2023-08-21T09:30:56Z</time>
      </trkpt>
      <trkpt lat="48.73005" lon="7.31679">
        <ele>399.4</ele>
        <time>2023-08-21T09:31:01Z</time>
      </trkpt>
      <trkpt lat="48.72986" lon="7.31669">
        <ele>396.2</ele>
        <time>2023-08-21T09:31:06Z</time>
      </trkpt>
      <trkpt lat="48.72969" lon="7.31656">
        <ele>393.7</ele>
        <time>2023-08-21T09:31:10Z</time>
      </trkpt>
      <trkpt lat="48.72947" lon="7.31655">
        <ele>391.6</ele>
        <time>2023-08-21T09:31:15Z</time>
      </trkpt>
      <trkpt lat="48.72926" lon="7.31653">
        <ele>390.3</ele>
        <time>2023-08-21T09:31:21Z</time>
      </trkpt>
      <trkpt lat="48.72909" lon="7.31644">
        <ele>387.5</ele>
        <time>2023-08-21T09:31:26Z</time>
      </trkpt>
      <trkpt lat="48.7289" lon="7.31635">
        <ele>384.3</ele>
        <time>2023-08-21T09:31:32Z</time>
      </trkpt>
      <trkpt lat="48.72883" lon="7.31636">
        <ele>383.9</ele>
        <time>2023-08-21T09:31:35Z</time>
      </trkpt>
      <trkpt lat="48.72874" lon="7.31654">
        <ele>386.6</ele>
        <time>2023-08-21T09:31:44Z</time>
      </trkpt>
      <trkpt lat="48.72874" lon="7.3166">
        <ele>387.9</ele>
        <time>2023-08-21T09:31:48Z</time>
      </trkpt>
      <trkpt lat="48.72874" lon="7.31672">
        <ele>389.2</ele>
        <time>2023-08-21T09:32:06Z</time>
      </trkpt>
      <trkpt lat="48.72871" lon="7.31686">
        <ele>391.4</ele>
        <time>2023-08-21T09:32:15Z</time>
      </trkpt>
      <trkpt lat="48.7287" lon="7.31689">
        <ele>391.1</ele>
        <time>2023-08-21T09:32:18Z</time>
      </trkpt>
      <trkpt lat="48.72869" lon="7.31697">
        <ele>392.5</ele>
        <time>2023-08-21T09:32:24Z</time>
      </trkpt>
      <trkpt lat="48.72867" lon="7.31704">
        <ele>393.1</ele>
        <time>2023-08-21T09:32:28Z</time>
      </trkpt>
      <trkpt lat="48.72862" lon="7.31707">
        <ele>393</ele>
        <time>2023-08-21T09:32:30Z</time>
      </trkpt>
      <trkpt lat="48.72857" lon="7.31711">
        <ele>393.1</ele>
        <time>2023-08-21T09:32:33Z</time>
      </trkpt>
      <trkpt lat="48.72851" lon="7.31738">
        <ele>394.6</ele>
        <time>2023-08-21T09:32:42Z</time>
      </trkpt>
      <trkpt lat="48.72853" lon="7.31766">
        <ele>396.3</ele>
        <time>2023-08-21T09:32:49Z</time>
      </trkpt>
      <trkpt lat="48.72864" lon="7.31791">
        <ele>398.1</ele>
        <time>2023-08-21T09:32:56Z</time>
      </trkpt>
      <trkpt lat="48.72876" lon="7.31816">
        <ele>400.1</ele>
        <time>2023-08-21T09:33:04Z</time>
      </trkpt>
      <trkpt lat="48.7288" lon="7.31843">
        <ele>402.3</ele>
        <time>2023-08-21T09:33:11Z</time>
      </trkpt>
      <trkpt lat="48.72883" lon="7.31868">
        <ele>404</ele>
        <time>2023-08-21T09:33:18Z</time>
      </trkpt>
      <trkpt lat="48.72866" lon="7.31884">
        <ele>404.6</ele>
        <time>2023-08-21T09:33:27Z</time>
      </trkpt>
      <trkpt lat="48.72849" lon="7.31896">
        <ele>404.6</ele>
        <time>2023-08-21T09:33:35Z</time>
      </trkpt>
      <trkpt lat="48.72846" lon="7.31899">
        <ele>404.6</ele>
        <time>2023-08-21T09:33:38Z</time>
      </trkpt>
      <trkpt lat="48.72843" lon="7.31911">
        <ele>404.6</ele>
        <time>2023-08-21T09:33:43Z</time>
      </trkpt>
      <trkpt lat="48.72841" lon="7.31922">
        <ele>404.5</ele>
        <time>2023-08-21T09:33:49Z</time>
      </trkpt>
      <trkpt lat="48.72846" lon="7.31952">
        <ele>404.5</ele>
        <time>2023-08-21T09:33:58Z</time>
      </trkpt>
      <trkpt lat="48.72852" lon="7.3198">
        <ele>404.6</ele>
        <time>2023-08-21T09:34:05Z</time>
      </trkpt>
      <trkpt lat="48.72858" lon="7.32009">
        <ele>404.5</ele>
        <time>2023-08-21T09:34:13Z</time>
      </trkpt>
      <trkpt lat="48.72864" lon="7.32039">
        <ele>403</ele>
        <time>2023-08-21T09:34:21Z</time>
      </trkpt>
      <trkpt lat="48.72868" lon="7.32067">
        <ele>402</ele>
        <time>2023-08-21T09:34:28Z</time>
      </trkpt>
      <trkpt lat="48.72868" lon="7.32071">
        <ele>401.9</ele>
        <time>2023-08-21T09:34:30Z</time>
      </trkpt>
      <trkpt lat="48.72867" lon="7.32074">
        <ele>401.8</ele>
        <time>2023-08-21T09:34:33Z</time>
      </trkpt>
      <trkpt lat="48.72866" lon="7.32098">
        <ele>400.9</ele>
        <time>2023-08-21T09:34:45Z</time>
      </trkpt>
      <trkpt lat="48.72867" lon="7.32103">
        <ele>400.7</ele>
        <time>2023-08-21T09:34:48Z</time>
      </trkpt>
      <trkpt lat="48.72877" lon="7.32126">
        <ele>399.2</ele>
        <time>2023-08-21T09:35:00Z</time>
      </trkpt>
      <trkpt lat="48.72879" lon="7.32135">
        <ele>398.9</ele>
        <time>2023-08-21T09:35:04Z</time>
      </trkpt>
      <trkpt lat="48.7288" lon="7.32137">
        <ele>398.8</ele>
        <time>2023-08-21T09:35:06Z</time>
      </trkpt>
      <trkpt lat="48.72883" lon="7.32142">
        <ele>398.5</ele>
        <time>2023-08-21T09:35:14Z</time>
      </trkpt>
      <trkpt lat="48.72884" lon="7.32149">
        <ele>398.3</ele>
        <time>2023-08-21T09:35:18Z</time>
      </trkpt>
      <trkpt lat="48.72886" lon="7.32149">
        <ele>398.2</ele>
        <time>2023-08-21T09:35:21Z</time>
      </trkpt>
      <trkpt lat="48.72895" lon="7.32156">
        <ele>397.8</ele>
        <time>2023-08-21T09:35:32Z</time>
      </trkpt>
      <trkpt lat="48.72897" lon="7.32156">
        <ele>397.7</ele>
        <time>2023-08-21T09:35:36Z</time>
      </trkpt>
      <trkpt lat="48.72899" lon="7.32157">
        <ele>397.6</ele>
        <time>2023-08-21T09:35:39Z</time>
      </trkpt>
      <trkpt lat="48.729" lon="7.3216">
        <ele>397.6</ele>
        <time>2023-08-21T09:35:42Z</time>
      </trkpt>
      <trkpt lat="48.72902" lon="7.32159">
        <ele>397.5</ele>
        <time>2023-08-21T09:35:45Z</time>
      </trkpt>
      <trkpt lat="48.72905" lon="7.32153">
        <ele>397.4</ele>
        <time>2023-08-21T09:35:50Z</time>
      </trkpt>
      <trkpt lat="48.72909" lon="7.3215">
        <ele>397.3</ele>
        <time>2023-08-21T09:35:57Z</time>
      </trkpt>
      <trkpt lat="48.72911" lon="7.3215">
        <ele>397.2</ele>
        <time>2023-08-21T09:36:00Z</time>
      </trkpt>
      <trkpt lat="48.72913" lon="7.3215">
        <ele>397.2</ele>
        <time>2023-08-21T09:36:04Z</time>
      </trkpt>
      <trkpt lat="48.72913" lon="7.3215">
        <ele>397.1</ele>
        <time>2023-08-21T09:36:05Z</time>
      </trkpt>
      <trkpt lat="48.72918" lon="7.32149">
        <ele>397</ele>
        <time>2023-08-21T09:36:09Z</time>
      </trkpt>
      <trkpt lat="48.72921" lon="7.32147">
        <ele>396.9</ele>
        <time>2023-08-21T09:36:12Z</time>
      </trkpt>
      <trkpt lat="48.72934" lon="7.32171">
        <ele>396.3</ele>
        <time>2023-08-21T09:36:20Z</time>
      </trkpt>
      <trkpt lat="48.72943" lon="7.32195">
        <ele>396</ele>
        <time>2023-08-21T09:36:25Z</time>
      </trkpt>
      <trkpt lat="48.7295" lon="7.32221">
        <ele>395.7</ele>
        <time>2023-08-21T09:36:30Z</time>
      </trkpt>
      <trkpt lat="48.72962" lon="7.32246">
        <ele>395.4</ele>
        <time>2023-08-21T09:36:35Z</time>
      </trkpt>
      <trkpt lat="48.72979" lon="7.32262">
        <ele>395</ele>
        <time>2023-08-21T09:36:40Z</time>
      </trkpt>
      <trkpt lat="48.72999" lon="7.32258">
        <ele>395.2</ele>
        <time>2023-08-21T09:36:45Z</time>
      </trkpt>
      <trkpt lat="48.73016" lon="7.32247">
        <ele>395.8</ele>
        <time>2023-08-21T09:36:50Z</time>
      </trkpt>
      <trkpt lat="48.73035" lon="7.32235">
        <ele>396.8</ele>
        <time>2023-08-21T09:36:56Z</time>
      </trkpt>
      <trkpt lat="48.73058" lon="7.32222">
        <ele>398</ele>
        <time>2023-08-21T09:37:02Z</time>
      </trkpt>
      <trkpt lat="48.73077" lon="7.32216">
        <ele>398.8</ele>
        <time>2023-08-21T09:37:10Z</time>
      </trkpt>
      <trkpt lat="48.73096" lon="7.32213">
        <ele>399.1</ele>
        <time>2023-08-21T09:37:18Z</time>
      </trkpt>
      <trkpt lat="48.73115" lon="7.32218">
        <ele>399.2</ele>
        <time>2023-08-21T09:37:24Z</time>
      </trkpt>
      <trkpt lat="48.73133" lon="7.32227">
        <ele>399.4</ele>
        <time>2023-08-21T09:37:31Z</time>
      </trkpt>
      <trkpt lat="48.73145" lon="7.32254">
        <ele>399.5</ele>
        <time>2023-08-21T09:37:38Z</time>
      </trkpt>
      <trkpt lat="48.73153" lon="7.32279">
        <ele>399.6</ele>
        <time>2023-08-21T09:37:43Z</time>
      </trkpt>
      <trkpt lat="48.73162" lon="7.32302">
        <ele>399.7</ele>
        <time>2023-08-21T09:37:48Z</time>
      </trkpt>
      <trkpt lat="48.73183" lon="7.3232">
        <ele>399.9</ele>
        <time>2023-08-21T09:37:55Z</time>
      </trkpt>
      <trkpt lat="48.73201" lon="7.32346">
        <ele>400</ele>
        <time>2023-08-21T09:38:05Z</time>
      </trkpt>
      <trkpt lat="48.7321" lon="7.32374">
        <ele>400.3</ele>
        <time>2023-08-21T09:38:15Z</time>
      </trkpt>
      <trkpt lat="48.7322" lon="7.32388">
        <ele>400.4</ele>
        <time>2023-08-21T09:38:25Z</time>
      </trkpt>
      <trkpt lat="48.73231" lon="7.32413">
        <ele>400.8</ele>
        <time>2023-08-21T09:38:33Z</time>
      </trkpt>
      <trkpt lat="48.73239" lon="7.32426">
        <ele>400.8</ele>
        <time>2023-08-21T09:38:40Z</time>
      </trkpt>
      <trkpt lat="48.7324" lon="7.32426">
        <ele>400.8</ele>
        <time>2023-08-21T09:38:42Z</time>
      </trkpt>
      <trkpt lat="48.73242" lon="7.32429">
        <ele>400.8</ele>
        <time>2023-08-21T09:38:46Z</time>
      </trkpt>
      <trkpt lat="48.73242" lon="7.32431">
        <ele>400.8</ele>
        <time>2023-08-21T09:38:48Z</time>
      </trkpt>
      <trkpt lat="48.73243" lon="7.32434">
        <ele>400.8</ele>
        <time>2023-08-21T09:38:50Z</time>
      </trkpt>
      <trkpt lat="48.73244" lon="7.32462">
        <ele>400.8</ele>
        <time>2023-08-21T09:38:58Z</time>
      </trkpt>
      <trkpt lat="48.73248" lon="7.32471">
        <ele>400.8</ele>
        <time>2023-08-21T09:39:04Z</time>
      </trkpt>
      <trkpt lat="48.73248" lon="7.32474">
        <ele>400.8</ele>
        <time>2023-08-21T09:39:08Z</time>
      </trkpt>
      <trkpt lat="48.73248" lon="7.32474">
        <ele>400.8</ele>
        <time>2023-08-21T09:39:10Z</time>
      </trkpt>
      <trkpt lat="48.7324" lon="7.32445">
        <ele>400.8</ele>
        <time>2023-08-21T09:39:19Z</time>
      </trkpt>
      <trkpt lat="48.73237" lon="7.32435">
        <ele>400.8</ele>
        <time>2023-08-21T09:39:26Z</time>
      </trkpt>
      <trkpt lat="48.73236" lon="7.32429">
        <ele>400.8</ele>
        <time>2023-08-21T09:39:31Z</time>
      </trkpt>
      <trkpt lat="48.73235" lon="7.32431">
        <ele>400.8</ele>
        <time>2023-08-21T09:39:34Z</time>
      </trkpt>
      <trkpt lat="48.73237" lon="7.32423">
        <ele>400.8</ele>
        <time>2023-08-21T09:40:06Z</time>
      </trkpt>
      <trkpt lat="48.73221" lon="7.32407">
        <ele>400.8</ele>
        <time>2023-08-21T09:40:16Z</time>
      </trkpt>
      <trkpt lat="48.73203" lon="7.32397">
        <ele>400.8</ele>
        <time>2023-08-21T09:40:23Z</time>
      </trkpt>
      <trkpt lat="48.73195" lon="7.32391">
        <ele>400.7</ele>
        <time>2023-08-21T09:40:42Z</time>
      </trkpt>
      <trkpt lat="48.73196" lon="7.3239">
        <ele>400.7</ele>
        <time>2023-08-21T09:40:46Z</time>
      </trkpt>
      <trkpt lat="48.73197" lon="7.32389">
        <ele>400.7</ele>
        <time>2023-08-21T09:40:48Z</time>
      </trkpt>
      <trkpt lat="48.73199" lon="7.32388">
        <ele>400.7</ele>
        <time>2023-08-21T09:40:50Z</time>
      </trkpt>
      <trkpt lat="48.73201" lon="7.32388">
        <ele>400.7</ele>
        <time>2023-08-21T09:40:53Z</time>
      </trkpt>
      <trkpt lat="48.73202" lon="7.3239">
        <ele>400.7</ele>
        <time>2023-08-21T09:40:55Z</time>
      </trkpt>
      <trkpt lat="48.73196" lon="7.32394">
        <ele>400.6</ele>
        <time>2023-08-21T09:40:58Z</time>
      </trkpt>
      <trkpt lat="48.73191" lon="7.32385">
        <ele>400.5</ele>
        <time>2023-08-21T09:41:24Z</time>
      </trkpt>
      <trkpt lat="48.73188" lon="7.32365">
        <ele>400.4</ele>
        <time>2023-08-21T09:41:49Z</time>
      </trkpt>
      <trkpt lat="48.73186" lon="7.32367">
        <ele>400.4</ele>
        <time>2023-08-21T09:41:50Z</time>
      </trkpt>
      <trkpt lat="48.73186" lon="7.32364">
        <ele>400.4</ele>
        <time>2023-08-21T09:41:56Z</time>
      </trkpt>
      <trkpt lat="48.73183" lon="7.32356">
        <ele>400.3</ele>
        <time>2023-08-21T09:42:04Z</time>
      </trkpt>
      <trkpt lat="48.73181" lon="7.32354">
        <ele>400.3</ele>
        <time>2023-08-21T09:42:08Z</time>
      </trkpt>
      <trkpt lat="48.73179" lon="7.32353">
        <ele>400.3</ele>
        <time>2023-08-21T09:42:11Z</time>
      </trkpt>
      <trkpt lat="48.73178" lon="7.32353">
        <ele>400.3</ele>
        <time>2023-08-21T09:42:13Z</time>
      </trkpt>
      <trkpt lat="48.73176" lon="7.32352">
        <ele>400.3</ele>
        <time>2023-08-21T09:42:15Z</time>
      </trkpt>
      <trkpt lat="48.73176" lon="7.32352">
        <ele>400.3</ele>
        <time>2023-08-21T09:42:19Z</time>
      </trkpt>
      <trkpt lat="48.73178" lon="7.32351">
        <ele>400.3</ele>
        <time>2023-08-21T09:42:23Z</time>
      </trkpt>
      <trkpt lat="48.73183" lon="7.32355">
        <ele>400.2</ele>
        <time>2023-08-21T09:42:30Z</time>
      </trkpt>
      <trkpt lat="48.73184" lon="7.32356">
        <ele>400.2</ele>
        <time>2023-08-21T09:42:32Z</time>
      </trkpt>
      <trkpt lat="48.73186" lon="7.32357">
        <ele>400.2</ele>
        <time>2023-08-21T09:42:36Z</time>
      </trkpt>
      <trkpt lat="48.73187" lon="7.32357">
        <ele>400.2</ele>
        <time>2023-08-21T09:42:38Z</time>
      </trkpt>
      <trkpt lat="48.73188" lon="7.32355">
        <ele>400.2</ele>
        <time>2023-08-21T09:42:41Z</time>
      </trkpt>
      <trkpt lat="48.73193" lon="7.32352">
        <ele>400.2</ele>
        <time>2023-08-21T09:42:46Z</time>
      </trkpt>
      <trkpt lat="48.73194" lon="7.32352">
        <ele>400.2</ele>
        <time>2023-08-21T09:42:47Z</time>
      </trkpt>
      <trkpt lat="48.73195" lon="7.32353">
        <ele>400.2</ele>
        <time>2023-08-21T09:42:50Z</time>
      </trkpt>
      <trkpt lat="48.73196" lon="7.32353">
        <ele>400.2</ele>
        <time>2023-08-21T09:42:52Z</time>
      </trkpt>
      <trkpt lat="48.73196" lon="7.32355">
        <ele>400.2</ele>
        <time>2023-08-21T09:42:54Z</time>
      </trkpt>
      <trkpt lat="48.73199" lon="7.32346">
        <ele>400.1</ele>
        <time>2023-08-21T09:43:11Z</time>
      </trkpt>
      <trkpt lat="48.732" lon="7.32345">
        <ele>400.1</ele>
        <time>2023-08-21T09:43:13Z</time>
      </trkpt>
      <trkpt lat="48.73202" lon="7.32341">
        <ele>400.1</ele>
        <time>2023-08-21T09:43:18Z</time>
      </trkpt>
      <trkpt lat="48.73204" lon="7.32334">
        <ele>400.1</ele>
        <time>2023-08-21T09:43:28Z</time>
      </trkpt>
      <trkpt lat="48.73203" lon="7.32335">
        <ele>400.1</ele>
        <time>2023-08-21T09:43:30Z</time>
      </trkpt>
      <trkpt lat="48.73204" lon="7.32333">
        <ele>400.1</ele>
        <time>2023-08-21T09:43:36Z</time>
      </trkpt>
      <trkpt lat="48.73205" lon="7.32333">
        <ele>400.1</ele>
        <time>2023-08-21T09:43:38Z</time>
      </trkpt>
      <trkpt lat="48.73205" lon="7.32332">
        <ele>400.1</ele>
        <time>2023-08-21T09:43:40Z</time>
      </trkpt>
      <trkpt lat="48.73207" lon="7.3233">
        <ele>400</ele>
        <time>2023-08-21T09:43:46Z</time>
      </trkpt>
      <trkpt lat="48.73211" lon="7.32327">
        <ele>402.6</ele>
        <time>2023-08-21T09:43:48Z</time>
      </trkpt>
      <trkpt lat="48.73218" lon="7.32318">
        <ele>406.3</ele>
        <time>2023-08-21T09:43:59Z</time>
      </trkpt>
      <trkpt lat="48.73218" lon="7.32317">
        <ele>406.3</ele>
        <time>2023-08-21T09:44:01Z</time>
      </trkpt>
      <trkpt lat="48.73222" lon="7.32305">
        <ele>411.4</ele>
        <time>2023-08-21T09:44:20Z</time>
      </trkpt>
      <trkpt lat="48.73224" lon="7.32302">
        <ele>412.5</ele>
        <time>2023-08-21T09:44:24Z</time>
      </trkpt>
      <trkpt lat="48.73234" lon="7.32281">
        <ele>420.4</ele>
        <time>2023-08-21T09:44:43Z</time>
      </trkpt>
      <trkpt lat="48.73235" lon="7.32276">
        <ele>421.2</ele>
        <time>2023-08-21T09:44:49Z</time>
      </trkpt>
      <trkpt lat="48.73241" lon="7.32254">
        <ele>426.8</ele>
        <time>2023-08-21T09:45:07Z</time>
      </trkpt>
      <trkpt lat="48.73251" lon="7.3223">
        <ele>433.5</ele>
        <time>2023-08-21T09:45:22Z</time>
      </trkpt>
      <trkpt lat="48.73256" lon="7.32204">
        <ele>439.7</ele>
        <time>2023-08-21T09:45:36Z</time>
      </trkpt>
      <trkpt lat="48.73266" lon="7.32181">
        <ele>445.1</ele>
        <time>2023-08-21T09:45:48Z</time>
      </trkpt>
      <trkpt lat="48.73267" lon="7.32153">
        <ele>448.3</ele>
        <time>2023-08-21T09:46:00Z</time>
      </trkpt>
      <trkpt lat="48.73268" lon="7.32124">
        <ele>449.3</ele>
        <time>2023-08-21T09:46:10Z</time>
      </trkpt>
      <trkpt lat="48.73279" lon="7.32102">
        <ele>452.7</ele>
        <time>2023-08-21T09:46:22Z</time>
      </trkpt>
      <trkpt lat="48.73294" lon="7.32085">
        <ele>456.2</ele>
        <time>2023-08-21T09:46:30Z</time>
      </trkpt>
      <trkpt lat="48.73306" lon="7.32065">
        <ele>458.5</ele>
        <time>2023-08-21T09:46:38Z</time>
      </trkpt>
      <trkpt lat="48.73317" lon="7.32042">
        <ele>458.1</ele>
        <time>2023-08-21T09:46:46Z</time>
      </trkpt>
      <trkpt lat="48.73326" lon="7.32018">
        <ele>457.4</ele>
        <time>2023-08-21T09:46:54Z</time>
      </trkpt>
      <trkpt lat="48.73337" lon="7.31996">
        <ele>458.1</ele>
        <time>2023-08-21T09:47:02Z</time>
      </trkpt>
      <trkpt lat="48.73348" lon="7.31974">
        <ele>457.7</ele>
        <time>2023-08-21T09:47:09Z</time>
      </trkpt>
      <trkpt lat="48.73364" lon="7.31956">
        <ele>457.5</ele>
        <time>2023-08-21T09:47:15Z</time>
      </trkpt>
      <trkpt lat="48.73379" lon="7.31937">
        <ele>455.9</ele>
        <time>2023-08-21T09:47:21Z</time>
      </trkpt>
      <trkpt lat="48.73391" lon="7.31913">
        <ele>455</ele>
        <time>2023-08-21T09:47:28Z</time>
      </trkpt>
      <trkpt lat="48.734" lon="7.3189">
        <ele>454.6</ele>
        <time>2023-08-21T09:47:34Z</time>
      </trkpt>
      <trkpt lat="48.7341" lon="7.31865">
        <ele>454.2</ele>
        <time>2023-08-21T09:47:41Z</time>
      </trkpt>
      <trkpt lat="48.73421" lon="7.31839">
        <ele>454.3</ele>
        <time>2023-08-21T09:47:47Z</time>
      </trkpt>
      <trkpt lat="48.73431" lon="7.31813">
        <ele>454.6</ele>
        <time>2023-08-21T09:47:53Z</time>
      </trkpt>
      <trkpt lat="48.7344" lon="7.31787">
        <ele>454.5</ele>
        <time>2023-08-21T09:48:00Z</time>
      </trkpt>
      <trkpt lat="48.73446" lon="7.31757">
        <ele>454.7</ele>
        <time>2023-08-21T09:48:07Z</time>
      </trkpt>
      <trkpt lat="48.73452" lon="7.31731">
        <ele>455.5</ele>
        <time>2023-08-21T09:48:14Z</time>
      </trkpt>
      <trkpt lat="48.73459" lon="7.31703">
        <ele>456</ele>
        <time>2023-08-21T09:48:21Z</time>
      </trkpt>
      <trkpt lat="48.73461" lon="7.31673">
        <ele>455.7</ele>
        <time>2023-08-21T09:48:28Z</time>
      </trkpt>
      <trkpt lat="48.73461" lon="7.31643">
        <ele>455.6</ele>
        <time>2023-08-21T09:48:34Z</time>
      </trkpt>
      <trkpt lat="48.73459" lon="7.31614">
        <ele>455.9</ele>
        <time>2023-08-21T09:48:41Z</time>
      </trkpt>
      <trkpt lat="48.73458" lon="7.31586">
        <ele>456.1</ele>
        <time>2023-08-21T09:48:47Z</time>
      </trkpt>
      <trkpt lat="48.73457" lon="7.31559">
        <ele>456.3</ele>
        <time>2023-08-21T09:48:53Z</time>
      </trkpt>
      <trkpt lat="48.73461" lon="7.31545">
        <ele>456.5</ele>
        <time>2023-08-21T09:48:58Z</time>
      </trkpt>
      <trkpt lat="48.73465" lon="7.31513">
        <ele>456.1</ele>
        <time>2023-08-21T09:49:06Z</time>
      </trkpt>
      <trkpt lat="48.73468" lon="7.31483">
        <ele>455.9</ele>
        <time>2023-08-21T09:49:12Z</time>
      </trkpt>
      <trkpt lat="48.73468" lon="7.31452">
        <ele>455.3</ele>
        <time>2023-08-21T09:49:18Z</time>
      </trkpt>
      <trkpt lat="48.73472" lon="7.3142">
        <ele>454.4</ele>
        <time>2023-08-21T09:49:24Z</time>
      </trkpt>
      <trkpt lat="48.73476" lon="7.3139">
        <ele>452.7</ele>
        <time>2023-08-21T09:49:30Z</time>
      </trkpt>
      <trkpt lat="48.73477" lon="7.3136">
        <ele>450.5</ele>
        <time>2023-08-21T09:49:36Z</time>
      </trkpt>
      <trkpt lat="48.73486" lon="7.31332">
        <ele>447.5</ele>
        <time>2023-08-21T09:49:42Z</time>
      </trkpt>
      <trkpt lat="48.73493" lon="7.31305">
        <ele>444.3</ele>
        <time>2023-08-21T09:49:48Z</time>
      </trkpt>
      <trkpt lat="48.73501" lon="7.31277">
        <ele>441.1</ele>
        <time>2023-08-21T09:49:53Z</time>
      </trkpt>
      <trkpt lat="48.735" lon="7.31247">
        <ele>438.7</ele>
        <time>2023-08-21T09:49:58Z</time>
      </trkpt>
      <trkpt lat="48.735" lon="7.31234">
        <ele>437.5</ele>
        <time>2023-08-21T09:50:01Z</time>
      </trkpt>
    </trkseg>
  </trk>
</gpx>